sensor_id;sensor_type;location;lat;lon;timestamp;pressure;altitude;pressure_sealevel;temperature;humidity
42433;BME280;28071;48.232;20.668;2023-09-19T00:03:26;99192.75;;;19.92;100.00
42433;BME280;28071;48.232;20.668;2023-09-19T00:08:26;99179.59;;;19.85;100.00
42433;BME280;28071;48.232;20.668;2023-09-19T00:13:27;99189.94;;;19.78;100.00
42433;BME280;28071;48.232;20.668;2023-09-19T00:18:28;99191.94;;;19.91;100.00
42433;BME280;28071;48.232;20.668;2023-09-19T00:23:32;99191.66;;;19.93;100.00
42433;BME280;28071;48.232;20.668;2023-09-19T00:28:33;99181.50;;;19.85;100.00
42433;BME280;28071;48.232;20.668;2023-09-19T00:33:33;99207.56;;;19.71;100.00
42433;BME280;28071;48.232;20.668;2023-09-19T00:38:34;99210.09;;;19.28;100.00
42433;BME280;28071;48.232;20.668;2023-09-19T00:43:34;99198.84;;;18.81;100.00
42433;BME280;28071;48.232;20.668;2023-09-19T00:48:40;99192.72;;;18.76;100.00
42433;BME280;28071;48.232;20.668;2023-09-19T00:53:44;99188.25;;;18.51;100.00
42433;BME280;28071;48.232;20.668;2023-09-19T00:58:47;99221.72;;;18.40;100.00
42433;BME280;28071;48.232;20.668;2023-09-19T01:03:47;99193.75;;;18.30;100.00
42433;BME280;28071;48.232;20.668;2023-09-19T01:08:48;99217.47;;;18.23;100.00
42433;BME280;28071;48.232;20.668;2023-09-19T01:13:58;99194.19;;;17.93;100.00
42433;BME280;28071;48.232;20.668;2023-09-19T01:19:42;99221.41;;;17.77;100.00
42433;BME280;28071;48.232;20.668;2023-09-19T01:30:19;99202.31;;;17.37;100.00
42433;BME280;28071;48.232;20.668;2023-09-19T01:35:22;99208.25;;;17.50;100.00
42433;BME280;28071;48.232;20.668;2023-09-19T01:40:22;99191.84;;;17.36;100.00
42433;BME280;28071;48.232;20.668;2023-09-19T01:50:59;99185.97;;;17.18;100.00
42433;BME280;28071;48.232;20.668;2023-09-19T01:56:00;99183.81;;;17.31;100.00
42433;BME280;28071;48.232;20.668;2023-09-19T02:01:03;99145.13;;;17.06;100.00
42433;BME280;28071;48.232;20.668;2023-09-19T02:06:06;99127.94;;;17.02;100.00
42433;BME280;28071;48.232;20.668;2023-09-19T02:11:11;99147.22;;;17.30;100.00
42433;BME280;28071;48.232;20.668;2023-09-19T02:16:16;99125.47;;;17.21;100.00
42433;BME280;28071;48.232;20.668;2023-09-19T02:21:17;99148.84;;;17.36;100.00
42433;BME280;28071;48.232;20.668;2023-09-19T02:26:18;99139.16;;;17.35;100.00
42433;BME280;28071;48.232;20.668;2023-09-19T02:31:19;99135.16;;;17.32;100.00
42433;BME280;28071;48.232;20.668;2023-09-19T02:36:19;99103.22;;;17.10;100.00
42433;BME280;28071;48.232;20.668;2023-09-19T02:41:19;99109.09;;;17.12;100.00
42433;BME280;28071;48.232;20.668;2023-09-19T02:46:20;99077.97;;;17.01;100.00
42433;BME280;28071;48.232;20.668;2023-09-19T02:51:20;99088.13;;;17.14;100.00
42433;BME280;28071;48.232;20.668;2023-09-19T02:56:21;99106.41;;;17.12;100.00
42433;BME280;28071;48.232;20.668;2023-09-19T03:01:22;99106.16;;;17.09;100.00
42433;BME280;28071;48.232;20.668;2023-09-19T03:06:22;99060.78;;;16.77;100.00
42433;BME280;28071;48.232;20.668;2023-09-19T03:11:24;99102.41;;;16.95;100.00
42433;BME280;28071;48.232;20.668;2023-09-19T03:16:25;99096.22;;;17.04;100.00
42433;BME280;28071;48.232;20.668;2023-09-19T03:21:25;99083.34;;;16.86;100.00
42433;BME280;28071;48.232;20.668;2023-09-19T03:26:25;99093.81;;;16.98;100.00
42433;BME280;28071;48.232;20.668;2023-09-19T03:31:26;99091.66;;;16.89;100.00
42433;BME280;28071;48.232;20.668;2023-09-19T03:36:29;99095.97;;;16.90;100.00
42433;BME280;28071;48.232;20.668;2023-09-19T03:41:29;99113.69;;;16.97;100.00
42433;BME280;28071;48.232;20.668;2023-09-19T03:46:29;99083.63;;;16.89;100.00
42433;BME280;28071;48.232;20.668;2023-09-19T03:51:30;99067.50;;;16.84;100.00
42433;BME280;28071;48.232;20.668;2023-09-19T03:56:31;99086.56;;;16.88;100.00
42433;BME280;28071;48.232;20.668;2023-09-19T04:01:31;99085.75;;;16.82;100.00
42433;BME280;28071;48.232;20.668;2023-09-19T04:06:32;99085.25;;;16.85;100.00
42433;BME280;28071;48.232;20.668;2023-09-19T04:11:33;99073.69;;;16.75;100.00
42433;BME280;28071;48.232;20.668;2023-09-19T04:16:33;99068.56;;;16.68;100.00
42433;BME280;28071;48.232;20.668;2023-09-19T04:21:34;99090.84;;;16.63;100.00
42433;BME280;28071;48.232;20.668;2023-09-19T04:26:34;99038.22;;;16.42;100.00
42433;BME280;28071;48.232;20.668;2023-09-19T04:31:34;99084.41;;;16.64;100.00
42433;BME280;28071;48.232;20.668;2023-09-19T04:36:35;99076.34;;;16.54;100.00
42433;BME280;28071;48.232;20.668;2023-09-19T04:41:36;99023.72;;;16.43;100.00
42433;BME280;28071;48.232;20.668;2023-09-19T04:46:39;99049.47;;;16.39;100.00
42433;BME280;28071;48.232;20.668;2023-09-19T04:51:39;99074.44;;;16.55;100.00
42433;BME280;28071;48.232;20.668;2023-09-19T04:56:40;99081.50;;;16.71;100.00
42433;BME280;28071;48.232;20.668;2023-09-19T05:01:40;99082.81;;;16.63;100.00
42433;BME280;28071;48.232;20.668;2023-09-19T05:06:41;99061.56;;;17.88;100.00
42433;BME280;28071;48.232;20.668;2023-09-19T05:11:41;99085.69;;;18.81;100.00
42433;BME280;28071;48.232;20.668;2023-09-19T05:16:41;99057.81;;;18.67;100.00
42433;BME280;28071;48.232;20.668;2023-09-19T05:21:42;99064.28;;;18.95;100.00
42433;BME280;28071;48.232;20.668;2023-09-19T05:26:43;99074.50;;;18.98;100.00
42433;BME280;28071;48.232;20.668;2023-09-19T05:31:44;99065.09;;;18.96;100.00
42433;BME280;28071;48.232;20.668;2023-09-19T05:36:44;99074.91;;;19.10;100.00
42433;BME280;28071;48.232;20.668;2023-09-19T05:41:45;99069.94;;;19.23;100.00
42433;BME280;28071;48.232;20.668;2023-09-19T05:46:47;99074.75;;;19.26;100.00
42433;BME280;28071;48.232;20.668;2023-09-19T05:51:48;99061.38;;;19.16;100.00
42433;BME280;28071;48.232;20.668;2023-09-19T05:56:48;99038.84;;;19.30;100.00
42433;BME280;28071;48.232;20.668;2023-09-19T06:01:52;99060.38;;;19.35;100.00
42433;BME280;28071;48.232;20.668;2023-09-19T06:06:53;99007.00;;;19.08;100.00
42433;BME280;28071;48.232;20.668;2023-09-19T06:11:53;99061.09;;;19.41;100.00
42433;BME280;28071;48.232;20.668;2023-09-19T06:16:55;99074.03;;;19.44;100.00
42433;BME280;28071;48.232;20.668;2023-09-19T06:21:56;99070.91;;;19.56;100.00
42433;BME280;28071;48.232;20.668;2023-09-19T06:26:56;99057.09;;;19.62;100.00
42433;BME280;28071;48.232;20.668;2023-09-19T06:31:56;99076.56;;;19.59;100.00
42433;BME280;28071;48.232;20.668;2023-09-19T06:36:57;99064.97;;;19.59;100.00
42433;BME280;28071;48.232;20.668;2023-09-19T06:41:57;99072.59;;;19.52;100.00
42433;BME280;28071;48.232;20.668;2023-09-19T06:46:58;99065.78;;;19.59;100.00
42433;BME280;28071;48.232;20.668;2023-09-19T06:51:59;99051.00;;;19.76;100.00
42433;BME280;28071;48.232;20.668;2023-09-19T06:56:59;99086.25;;;19.84;100.00
42433;BME280;28071;48.232;20.668;2023-09-19T07:02:00;99058.75;;;19.82;100.00
42433;BME280;28071;48.232;20.668;2023-09-19T07:07:00;99077.53;;;19.68;100.00
42433;BME280;28071;48.232;20.668;2023-09-19T07:12:00;99095.94;;;19.85;100.00
42433;BME280;28071;48.232;20.668;2023-09-19T07:17:01;99090.31;;;19.82;100.00
42433;BME280;28071;48.232;20.668;2023-09-19T07:22:02;99041.06;;;19.71;100.00
42433;BME280;28071;48.232;20.668;2023-09-19T07:27:02;99105.38;;;19.88;100.00
42433;BME280;28071;48.232;20.668;2023-09-19T07:32:03;99089.88;;;19.51;100.00
42433;BME280;28071;48.232;20.668;2023-09-19T07:37:04;99109.31;;;19.95;100.00
42433;BME280;28071;48.232;20.668;2023-09-19T07:42:04;99071.63;;;19.66;100.00
42433;BME280;28071;48.232;20.668;2023-09-19T07:47:07;99094.19;;;19.94;100.00
42433;BME280;28071;48.232;20.668;2023-09-19T07:52:08;99115.25;;;20.35;100.00
42433;BME280;28071;48.232;20.668;2023-09-19T07:57:10;99110.91;;;20.15;100.00
42433;BME280;28071;48.232;20.668;2023-09-19T08:02:11;99098.00;;;20.12;100.00
42433;BME280;28071;48.232;20.668;2023-09-19T08:07:21;99098.22;;;20.16;100.00
42433;BME280;28071;48.232;20.668;2023-09-19T08:12:23;99130.16;;;20.52;100.00
42433;BME280;28071;48.232;20.668;2023-09-19T08:17:23;99140.81;;;20.62;100.00
42433;BME280;28071;48.232;20.668;2023-09-19T08:22:24;99062.81;;;20.17;100.00
42433;BME280;28071;48.232;20.668;2023-09-19T08:27:24;99057.28;;;20.09;100.00
42433;BME280;28071;48.232;20.668;2023-09-19T08:32:28;99101.13;;;20.38;100.00
42433;BME280;28071;48.232;20.668;2023-09-19T08:37:29;99085.09;;;20.47;100.00
42433;BME280;28071;48.232;20.668;2023-09-19T08:42:29;99084.44;;;20.17;100.00
42433;BME280;28071;48.232;20.668;2023-09-19T08:53:10;99068.91;;;20.28;100.00
42433;BME280;28071;48.232;20.668;2023-09-19T08:58:14;99079.69;;;20.47;100.00
42433;BME280;28071;48.232;20.668;2023-09-19T09:03:20;99097.13;;;20.55;100.00
42433;BME280;28071;48.232;20.668;2023-09-19T09:08:22;99093.13;;;20.52;100.00
42433;BME280;28071;48.232;20.668;2023-09-19T09:13:22;99116.84;;;20.74;100.00
42433;BME280;28071;48.232;20.668;2023-09-19T09:18:27;99123.97;;;20.84;100.00
42433;BME280;28071;48.232;20.668;2023-09-19T09:23:28;99070.13;;;20.17;100.00
42433;BME280;28071;48.232;20.668;2023-09-19T09:28:31;99130.53;;;20.45;100.00
42433;BME280;28071;48.232;20.668;2023-09-19T09:33:31;99082.13;;;20.11;100.00
42433;BME280;28071;48.232;20.668;2023-09-19T09:38:47;99137.00;;;19.82;100.00
42433;BME280;28071;48.232;20.668;2023-09-19T09:43:55;99131.16;;;19.46;100.00
42433;BME280;28071;48.232;20.668;2023-09-19T09:48:59;99151.66;;;19.47;100.00
42433;BME280;28071;48.232;20.668;2023-09-19T09:54:19;99128.75;;;19.21;100.00
42433;BME280;28071;48.232;20.668;2023-09-19T09:59:21;99146.69;;;19.01;100.00
42433;BME280;28071;48.232;20.668;2023-09-19T10:04:28;99149.97;;;18.59;100.00
42433;BME280;28071;48.232;20.668;2023-09-19T10:09:46;99121.91;;;18.21;100.00
42433;BME280;28071;48.232;20.668;2023-09-19T10:14:48;99124.38;;;18.17;100.00
42433;BME280;28071;48.232;20.668;2023-09-19T10:19:59;99147.28;;;18.59;100.00
42433;BME280;28071;48.232;20.668;2023-09-19T10:25:06;99134.97;;;18.43;100.00
42433;BME280;28071;48.232;20.668;2023-09-19T10:30:09;99127.38;;;18.50;100.00
42433;BME280;28071;48.232;20.668;2023-09-19T10:35:11;99129.59;;;18.43;100.00
42433;BME280;28071;48.232;20.668;2023-09-19T10:40:14;99172.03;;;18.61;100.00
42433;BME280;28071;48.232;20.668;2023-09-19T10:45:16;99130.09;;;18.50;100.00
42433;BME280;28071;48.232;20.668;2023-09-19T10:50:22;99122.50;;;18.57;100.00
42433;BME280;28071;48.232;20.668;2023-09-19T10:55:25;99114.31;;;18.72;100.00
42433;BME280;28071;48.232;20.668;2023-09-19T11:00:30;99106.81;;;18.64;100.00
42433;BME280;28071;48.232;20.668;2023-09-19T11:05:34;99149.50;;;18.91;100.00
42433;BME280;28071;48.232;20.668;2023-09-19T11:10:48;99156.19;;;18.94;100.00
42433;BME280;28071;48.232;20.668;2023-09-19T11:26:44;99159.94;;;18.98;100.00
42433;BME280;28071;48.232;20.668;2023-09-19T11:31:47;99119.97;;;18.76;100.00
42433;BME280;28071;48.232;20.668;2023-09-19T11:36:49;99106.69;;;18.84;100.00
42433;BME280;28071;48.232;20.668;2023-09-19T11:41:50;99117.63;;;18.98;100.00
42433;BME280;28071;48.232;20.668;2023-09-19T11:46:56;99128.09;;;19.05;100.00
42433;BME280;28071;48.232;20.668;2023-09-19T11:52:00;99106.38;;;18.91;100.00
42433;BME280;28071;48.232;20.668;2023-09-19T11:57:09;99120.81;;;19.05;100.00
42433;BME280;28071;48.232;20.668;2023-09-19T12:02:12;99133.25;;;18.67;100.00
42433;BME280;28071;48.232;20.668;2023-09-19T12:07:19;99112.00;;;18.55;100.00
42433;BME280;28071;48.232;20.668;2023-09-19T12:12:23;99146.63;;;18.77;100.00
42433;BME280;28071;48.232;20.668;2023-09-19T12:17:40;99111.03;;;18.41;100.00
42433;BME280;28071;48.232;20.668;2023-09-19T12:22:46;99134.97;;;18.43;100.00
42433;BME280;28071;48.232;20.668;2023-09-19T12:27:48;99189.06;;;18.51;100.00
42433;BME280;28071;48.232;20.668;2023-09-19T12:33:02;99143.66;;;18.35;100.00
42433;BME280;28071;48.232;20.668;2023-09-19T12:38:03;99203.06;;;18.53;100.00
42433;BME280;28071;48.232;20.668;2023-09-19T12:43:04;99163.44;;;18.10;100.00
42433;BME280;28071;48.232;20.668;2023-09-19T12:48:18;99193.59;;;18.56;100.00
42433;BME280;28071;48.232;20.668;2023-09-19T12:53:26;99157.88;;;18.45;100.00
42433;BME280;28071;48.232;20.668;2023-09-19T12:58:29;99153.41;;;18.25;100.00
42433;BME280;28071;48.232;20.668;2023-09-19T13:03:30;99133.84;;;18.05;100.00
42433;BME280;28071;48.232;20.668;2023-09-19T13:08:38;99168.25;;;18.18;100.00
42433;BME280;28071;48.232;20.668;2023-09-19T13:13:46;99174.66;;;18.27;100.00
42433;BME280;28071;48.232;20.668;2023-09-19T13:23:56;99206.47;;;18.74;100.00
42433;BME280;28071;48.232;20.668;2023-09-19T13:28:59;99237.13;;;18.83;100.00
42433;BME280;28071;48.232;20.668;2023-09-19T13:33:59;99224.19;;;18.80;100.00
42433;BME280;28071;48.232;20.668;2023-09-19T13:39:00;99260.78;;;18.92;100.00
42433;BME280;28071;48.232;20.668;2023-09-19T13:44:00;99210.09;;;18.94;100.00
42433;BME280;28071;48.232;20.668;2023-09-19T13:49:01;99265.88;;;19.32;100.00
42433;BME280;28071;48.232;20.668;2023-09-19T13:54:03;99259.16;;;19.30;100.00
42433;BME280;28071;48.232;20.668;2023-09-19T13:59:03;99258.28;;;19.34;100.00
42433;BME280;28071;48.232;20.668;2023-09-19T14:04:04;99268.63;;;19.56;100.00
42433;BME280;28071;48.232;20.668;2023-09-19T14:09:05;99260.81;;;19.60;100.00
42433;BME280;28071;48.232;20.668;2023-09-19T14:14:08;99259.56;;;19.47;100.00
42433;BME280;28071;48.232;20.668;2023-09-19T14:19:08;99268.53;;;19.37;100.00
42433;BME280;28071;48.232;20.668;2023-09-19T14:24:09;99278.25;;;19.38;100.00
42433;BME280;28071;48.232;20.668;2023-09-19T14:29:09;99281.38;;;19.51;100.00
42433;BME280;28071;48.232;20.668;2023-09-19T14:34:11;99269.66;;;19.31;100.00
42433;BME280;28071;48.232;20.668;2023-09-19T14:39:12;99290.16;;;19.32;100.00
42433;BME280;28071;48.232;20.668;2023-09-19T14:44:12;99290.75;;;19.24;100.00
42433;BME280;28071;48.232;20.668;2023-09-19T14:49:13;99306.91;;;19.29;100.00
42433;BME280;28071;48.232;20.668;2023-09-19T14:54:15;99298.13;;;19.48;100.00
42433;BME280;28071;48.232;20.668;2023-09-19T14:59:19;99299.03;;;19.33;100.00
42433;BME280;28071;48.232;20.668;2023-09-19T15:04:20;99303.88;;;19.36;100.00
42433;BME280;28071;48.232;20.668;2023-09-19T15:09:22;99294.38;;;19.44;100.00
42433;BME280;28071;48.232;20.668;2023-09-19T15:14:26;99309.34;;;19.65;100.00
42433;BME280;28071;48.232;20.668;2023-09-19T15:19:27;99255.47;;;20.08;100.00
42433;BME280;28071;48.232;20.668;2023-09-19T15:24:27;99264.53;;;20.17;100.00
42433;BME280;28071;48.232;20.668;2023-09-19T15:29:28;99279.72;;;20.13;100.00
42433;BME280;28071;48.232;20.668;2023-09-19T15:34:29;99288.44;;;19.81;100.00
42433;BME280;28071;48.232;20.668;2023-09-19T15:39:31;99320.56;;;19.77;100.00
42433;BME280;28071;48.232;20.668;2023-09-19T15:44:34;99321.22;;;19.64;100.00
42433;BME280;28071;48.232;20.668;2023-09-19T15:49:35;99350.88;;;19.64;100.00
42433;BME280;28071;48.232;20.668;2023-09-19T15:54:36;99333.47;;;19.46;100.00
42433;BME280;28071;48.232;20.668;2023-09-19T15:59:42;99353.81;;;19.28;100.00
42433;BME280;28071;48.232;20.668;2023-09-19T16:04:45;99352.56;;;19.16;100.00
42433;BME280;28071;48.232;20.668;2023-09-19T16:09:45;99355.34;;;19.00;100.00
42433;BME280;28071;48.232;20.668;2023-09-19T16:14:46;99360.22;;;18.88;100.00
42433;BME280;28071;48.232;20.668;2023-09-19T16:19:46;99354.66;;;18.74;100.00
42433;BME280;28071;48.232;20.668;2023-09-19T16:24:48;99361.94;;;18.64;100.00
42433;BME280;28071;48.232;20.668;2023-09-19T16:29:48;99363.53;;;18.65;100.00
42433;BME280;28071;48.232;20.668;2023-09-19T16:34:50;99380.78;;;18.58;100.00
42433;BME280;28071;48.232;20.668;2023-09-19T16:39:52;99374.13;;;18.46;100.00
42433;BME280;28071;48.232;20.668;2023-09-19T16:44:54;99386.22;;;18.48;100.00
42433;BME280;28071;48.232;20.668;2023-09-19T16:49:55;99382.75;;;18.33;100.00
42433;BME280;28071;48.232;20.668;2023-09-19T16:54:56;99391.94;;;18.16;100.00
42433;BME280;28071;48.232;20.668;2023-09-19T16:59:56;99390.34;;;18.00;100.00
42433;BME280;28071;48.232;20.668;2023-09-19T17:04:58;99398.16;;;18.07;100.00
42433;BME280;28071;48.232;20.668;2023-09-19T17:09:59;99408.63;;;17.98;100.00
42433;BME280;28071;48.232;20.668;2023-09-19T17:15:00;99399.47;;;17.79;100.00
42433;BME280;28071;48.232;20.668;2023-09-19T17:20:01;99409.16;;;17.74;100.00
42433;BME280;28071;48.232;20.668;2023-09-19T17:25:02;99410.72;;;17.65;100.00
42433;BME280;28071;48.232;20.668;2023-09-19T17:30:03;99413.69;;;17.64;100.00
42433;BME280;28071;48.232;20.668;2023-09-19T17:35:06;99424.47;;;17.69;100.00
42433;BME280;28071;48.232;20.668;2023-09-19T17:40:11;99397.78;;;17.37;100.00
42433;BME280;28071;48.232;20.668;2023-09-19T17:45:12;99434.59;;;17.36;100.00
42433;BME280;28071;48.232;20.668;2023-09-19T17:50:17;99426.22;;;17.23;100.00
42433;BME280;28071;48.232;20.668;2023-09-19T17:55:19;99429.69;;;17.13;100.00
42433;BME280;28071;48.232;20.668;2023-09-19T18:00:22;99456.81;;;17.06;100.00
42433;BME280;28071;48.232;20.668;2023-09-19T18:05:23;99450.63;;;17.01;100.00
42433;BME280;28071;48.232;20.668;2023-09-19T18:10:24;99436.78;;;16.77;100.00
42433;BME280;28071;48.232;20.668;2023-09-19T18:15:26;99428.72;;;16.72;100.00
42433;BME280;28071;48.232;20.668;2023-09-19T18:20:34;99451.50;;;16.69;100.00
42433;BME280;28071;48.232;20.668;2023-09-19T18:25:38;99462.25;;;16.69;100.00
42433;BME280;28071;48.232;20.668;2023-09-19T18:30:39;99472.50;;;16.72;100.00
42433;BME280;28071;48.232;20.668;2023-09-19T18:35:40;99464.28;;;16.52;100.00
42433;BME280;28071;48.232;20.668;2023-09-19T18:40:44;99467.19;;;16.45;100.00
42433;BME280;28071;48.232;20.668;2023-09-19T18:45:55;99455.53;;;16.29;100.00
42433;BME280;28071;48.232;20.668;2023-09-19T18:50:55;99486.56;;;16.52;100.00
42433;BME280;28071;48.232;20.668;2023-09-19T18:56:09;99473.03;;;16.37;100.00
42433;BME280;28071;48.232;20.668;2023-09-19T19:01:14;99468.56;;;16.48;100.00
42433;BME280;28071;48.232;20.668;2023-09-19T19:06:16;99458.53;;;16.33;100.00
42433;BME280;28071;48.232;20.668;2023-09-19T19:11:17;99486.97;;;16.34;100.00
42433;BME280;28071;48.232;20.668;2023-09-19T19:16:23;99486.06;;;16.23;100.00
42433;BME280;28071;48.232;20.668;2023-09-19T19:21:27;99483.84;;;16.15;100.00
42433;BME280;28071;48.232;20.668;2023-09-19T19:26:27;99486.84;;;16.19;100.00
42433;BME280;28071;48.232;20.668;2023-09-19T19:31:28;99492.72;;;16.16;100.00
42433;BME280;28071;48.232;20.668;2023-09-19T19:36:31;99490.25;;;16.09;100.00
42433;BME280;28071;48.232;20.668;2023-09-19T19:41:35;99504.69;;;16.03;100.00
42433;BME280;28071;48.232;20.668;2023-09-19T19:46:39;99505.72;;;16.02;100.00
42433;BME280;28071;48.232;20.668;2023-09-19T19:51:40;99504.56;;;15.93;100.00
42433;BME280;28071;48.232;20.668;2023-09-19T19:56:43;99508.22;;;15.81;100.00
42433;BME280;28071;48.232;20.668;2023-09-19T20:01:44;99492.25;;;15.65;100.00
42433;BME280;28071;48.232;20.668;2023-09-19T20:06:45;99492.53;;;15.46;100.00
42433;BME280;28071;48.232;20.668;2023-09-19T20:11:47;99503.59;;;15.50;100.00
42433;BME280;28071;48.232;20.668;2023-09-19T20:16:48;99455.34;;;15.06;100.00
42433;BME280;28071;48.232;20.668;2023-09-19T20:21:49;99506.50;;;15.48;100.00
42433;BME280;28071;48.232;20.668;2023-09-19T20:26:51;99532.63;;;15.36;100.00
42433;BME280;28071;48.232;20.668;2023-09-19T20:31:55;99481.00;;;15.02;100.00
42433;BME280;28071;48.232;20.668;2023-09-19T20:36:56;99494.34;;;14.97;100.00
42433;BME280;28071;48.232;20.668;2023-09-19T20:41:57;99535.75;;;15.11;100.00
42433;BME280;28071;48.232;20.668;2023-09-19T20:46:58;99552.81;;;15.22;100.00
42433;BME280;28071;48.232;20.668;2023-09-19T20:51:59;99539.19;;;15.07;100.00
42433;BME280;28071;48.232;20.668;2023-09-19T20:56:59;99548.47;;;14.99;100.00
42433;BME280;28071;48.232;20.668;2023-09-19T21:02:01;99559.19;;;14.99;100.00
42433;BME280;28071;48.232;20.668;2023-09-19T21:07:01;99558.28;;;14.93;100.00
42433;BME280;28071;48.232;20.668;2023-09-19T21:12:01;99551.00;;;14.72;100.00
42433;BME280;28071;48.232;20.668;2023-09-19T21:17:02;99562.06;;;14.76;100.00
42433;BME280;28071;48.232;20.668;2023-09-19T21:22:03;99553.63;;;14.67;100.00
42433;BME280;28071;48.232;20.668;2023-09-19T21:27:04;99559.69;;;14.79;100.00
42433;BME280;28071;48.232;20.668;2023-09-19T21:32:05;99578.19;;;14.97;100.00
42433;BME280;28071;48.232;20.668;2023-09-19T21:37:05;99570.34;;;14.74;100.00
42433;BME280;28071;48.232;20.668;2023-09-19T21:42:08;99563.13;;;14.75;100.00
42433;BME280;28071;48.232;20.668;2023-09-19T21:47:08;99580.25;;;14.74;100.00
42433;BME280;28071;48.232;20.668;2023-09-19T21:52:09;99570.66;;;14.78;100.00
42433;BME280;28071;48.232;20.668;2023-09-19T21:57:10;99579.63;;;14.88;100.00
42433;BME280;28071;48.232;20.668;2023-09-19T22:02:11;99582.09;;;14.90;100.00
42433;BME280;28071;48.232;20.668;2023-09-19T22:07:11;99584.50;;;14.91;100.00
42433;BME280;28071;48.232;20.668;2023-09-19T22:12:11;99552.47;;;14.80;100.00
42433;BME280;28071;48.232;20.668;2023-09-19T22:17:13;99603.88;;;15.15;100.00
42433;BME280;28071;48.232;20.668;2023-09-19T22:22:13;99589.16;;;15.18;100.00
42433;BME280;28071;48.232;20.668;2023-09-19T22:27:17;99595.13;;;15.20;100.00
42433;BME280;28071;48.232;20.668;2023-09-19T22:32:20;99606.53;;;15.32;100.00
42433;BME280;28071;48.232;20.668;2023-09-19T22:37:20;99589.34;;;15.28;100.00
42433;BME280;28071;48.232;20.668;2023-09-19T22:42:24;99604.97;;;15.36;100.00
42433;BME280;28071;48.232;20.668;2023-09-19T22:47:25;99602.59;;;15.40;100.00
42433;BME280;28071;48.232;20.668;2023-09-19T22:52:27;99605.03;;;15.41;100.00
42433;BME280;28071;48.232;20.668;2023-09-19T22:57:29;99613.50;;;15.33;100.00
42433;BME280;28071;48.232;20.668;2023-09-19T23:02:29;99602.72;;;15.28;100.00
42433;BME280;28071;48.232;20.668;2023-09-19T23:07:30;99622.56;;;15.49;100.00
42433;BME280;28071;48.232;20.668;2023-09-19T23:12:31;99613.69;;;15.48;100.00
42433;BME280;28071;48.232;20.668;2023-09-19T23:17:32;99623.63;;;15.48;100.00
42433;BME280;28071;48.232;20.668;2023-09-19T23:22:36;99559.81;;;15.06;100.00
42433;BME280;28071;48.232;20.668;2023-09-19T23:27:36;99604.16;;;15.36;100.00
42433;BME280;28071;48.232;20.668;2023-09-19T23:32:37;99619.75;;;15.39;100.00
42433;BME280;28071;48.232;20.668;2023-09-19T23:37:37;99620.00;;;15.37;100.00
42433;BME280;28071;48.232;20.668;2023-09-19T23:42:37;99644.13;;;15.37;100.00
42433;BME280;28071;48.232;20.668;2023-09-19T23:47:40;99630.97;;;15.36;100.00
42433;BME280;28071;48.232;20.668;2023-09-19T23:52:41;99633.41;;;15.37;100.00
42433;BME280;28071;48.232;20.668;2023-09-19T23:57:42;99646.47;;;15.34;100.00
